Anatone, WA

3:37 PM PDT on October 22, 2014 (GMT -0700)
Walla Walla Regional | Change Station
CLOSE
Current Station
Airport
Location: Walla Walla,
Elevation: 1204 ft
Nearby Weather Stations

Elev 1204 ft 46.09 °N, 118.29 °W | Updated 44 minutes ago

Mostly Cloudy
Mostly Cloudy
73 °F
Feels Like 73 °F
N
17
Wind Variable Wind from South
Gusts 32 mph

Today
High -- | Low -- °F
--% Chance of Precip.
Yesterday
High -- | Low -- °F
Precip. -- in
7:15 AM 5:49 PM
Waning Crescent, 1% visible
Pressure 29.77 in
Visibility 10.0 miles
Clouds Clear
Dew Point 38 °F
Humidity 28%
Rainfall 0.00 in
Snow Depth 0 in
UV 2 out of 12
Pollen 2.90 out of 12
Air Quality Not available.
Flu Activity Sporadic
METAR KALW 222153Z 17015G28KT 10SM CLR 23/03 A2978 RMK AO2 PK WND 17028/2147 SLP081 T02280033

More Conditions Fewer Conditions

Pressure 29.77 in
Visibility 10.0 miles
Clouds Clear
Dew Point 38 °F
Humidity 28%
Rainfall 0.00 in
Snow Depth 0 in
UV 2 out of 12
Pollen 2.90 out of 12
Air Quality Not available.
Flu Activity Sporadic
METAR KALW 222153Z 17015G28KT 10SM CLR 23/03 A2978 RMK AO2 PK WND 17028/2147 SLP081 T02280033

More Conditions Fewer Conditions

10-Day Weather Forecast

Almanac

Astronomy

Oct. 22, 2014 Rise Set
Actual Time 7:15 AM PDT 5:49 PM PDT
Civil Twilight 6:44 AM PDT 6:20 PM PDT
Nautical Twilight 6:09 AM PDT 6:55 PM PDT
Astronomical Twilight 5:34 AM PDT 7:29 PM PDT
Moon 5:56 AM PDT 5:21 PM PDT
Length of Visible Light 11h 35m
Length of Day
10h 34m
Tomorrow will be 3m 5s shorter.
Waning Crescent, 1% of the Moon is Illuminated
Today
Waning Crescent
Oct 23
New
Oct 30
First Quarter
Nov 6
Full
Nov 14
Last Quarter

Today's Extremes

State Highs State Lows

Community

WunderPhotos

Upload Photos

1,764,065 photos uploaded!

WunderBlogs® & News

Nearby

Snow Depth

Station Depth Elevation
Sourdough Gulch 0 in 4000 ft
Spruce Springs 1 in 5700 ft
Quartz Peak 1 in 4700 ft
Trough 0 in 5300 ft
Bunchgrass Meadow 0 in 5000 ft

Earthquake Activity

City Distance Mag. Time & Date
No recent earthquake activity has been reported nearby.
Minimum magnitude displayed is 2.5.

Coastal Water Temperatures

Place Temperature
No Stations Reporting

Nearby Weather Stations